createdAt,value
2018-09-15T00:00:00.587Z,102304.88
2018-09-15T00:03:04.946Z,102301.85
2018-09-15T00:06:08.218Z,102305.18
2018-09-15T00:09:11.853Z,102312.33
2018-09-15T00:12:15.161Z,102309.98
2018-09-15T00:15:18.417Z,102316.26
2018-09-15T00:18:21.711Z,102331.49
2018-09-15T00:21:26.055Z,102323.20
2018-09-15T00:24:29.340Z,102324.80
2018-09-15T00:27:33.317Z,102327.37
2018-09-15T00:30:36.691Z,102328.76
2018-09-15T00:33:40.044Z,102327.54
2018-09-15T00:36:43.352Z,102326.78
2018-09-15T00:39:46.700Z,102334.36
2018-09-15T00:42:50.068Z,102326.75
2018-09-15T00:45:53.299Z,102332.59
2018-09-15T00:48:56.646Z,102325.92
2018-09-15T00:51:59.943Z,102332.42
2018-09-15T00:55:03.839Z,102331.43
2018-09-15T00:58:07.123Z,102335.82
2018-09-15T01:01:10.398Z,102340.35
2018-09-15T01:04:13.715Z,102346.53
2018-09-15T01:07:17.079Z,102341.57
2018-09-15T01:10:20.291Z,102342.72
2018-09-15T01:13:23.651Z,102351.29
2018-09-15T01:16:27.159Z,102353.44
2018-09-15T01:19:30.455Z,102352.22
2018-09-15T01:22:34.219Z,102349.44
2018-09-15T01:25:37.539Z,102357.20
2018-09-15T01:28:40.872Z,102357.03
2018-09-15T01:31:44.147Z,102360.37
2018-09-15T01:34:47.444Z,102361.67
2018-09-15T01:37:50.704Z,102363.87
2018-09-15T01:40:54.008Z,102361.69
2018-09-15T01:43:57.207Z,102367.21
2018-09-15T01:47:00.524Z,102364.40
2018-09-15T01:50:04.553Z,102367.70
2018-09-15T01:53:07.857Z,102363.69
2018-09-15T01:56:11.096Z,102368.22
2018-09-15T01:59:14.324Z,102367.25
2018-09-15T02:02:17.627Z,102371.30
2018-09-15T02:05:20.899Z,102374.05
2018-09-15T02:08:24.080Z,102374.96
2018-09-15T02:11:27.404Z,102372.54
2018-09-15T02:14:30.907Z,102375.08
2018-09-15T02:17:34.894Z,102372.02
2018-09-15T02:20:38.176Z,102375.63
2018-09-15T02:23:41.502Z,102376.19
2018-09-15T02:26:44.707Z,102386.50
2018-09-15T02:29:48.029Z,102400.76
2018-09-15T02:32:51.272Z,102407.15
2018-09-15T02:35:54.663Z,102409.95
2018-09-15T02:38:57.962Z,102414.60
2018-09-15T02:42:01.331Z,102417.61
2018-09-15T02:45:04.993Z,102414.84
2018-09-15T02:48:08.274Z,102415.22
2018-09-15T02:51:11.508Z,102420.37
2018-09-15T02:54:14.816Z,102417.70
2018-09-15T02:57:18.103Z,102419.02
2018-09-15T03:00:22.411Z,102428.44
2018-09-15T03:03:25.617Z,102430.35
2018-09-15T03:06:28.880Z,102428.68
2018-09-15T03:09:32.105Z,102430.67
2018-09-15T03:12:36.027Z,102441.48
2018-09-15T03:15:39.392Z,102444.43
2018-09-15T03:18:42.723Z,102446.10
2018-09-15T03:21:46.016Z,102445.15
2018-09-15T03:24:49.327Z,102449.03
2018-09-15T03:27:52.612Z,102450.44
2018-09-15T03:30:55.981Z,102449.32
2018-09-15T03:34:01.254Z,102451.34
2018-09-15T03:37:05.225Z,102453.92
2018-09-15T03:40:08.638Z,102454.79
2018-09-15T03:43:11.847Z,102458.11
2018-09-15T03:46:15.143Z,102458.17
2018-09-15T03:49:18.356Z,102456.23
2018-09-15T03:52:21.514Z,102457.53
2018-09-15T03:55:24.742Z,102470.09
2018-09-15T03:58:28.039Z,102467.34
2018-09-15T04:01:31.335Z,102469.58
2018-09-15T04:04:35.219Z,102473.79
2018-09-15T04:07:38.542Z,102484.11
2018-09-15T04:10:42.081Z,102480.69
2018-09-15T04:13:45.235Z,102490.37
2018-09-15T04:16:48.521Z,102489.72
2018-09-15T04:19:51.862Z,102498.51
2018-09-15T04:22:55.111Z,102506.29
2018-09-15T04:25:58.295Z,102505.77
2018-09-15T04:29:01.705Z,102513.41
2018-09-15T04:32:05.698Z,102516.36
2018-09-15T04:35:10.094Z,102516.50
2018-09-15T04:38:13.443Z,102515.79
2018-09-15T04:41:16.812Z,102526.56
2018-09-15T04:44:20.049Z,102522.47
2018-09-15T04:47:23.316Z,102528.42
2018-09-15T04:50:26.531Z,102525.92
2018-09-15T04:53:29.707Z,102528.43
2018-09-15T04:56:33.051Z,102533.84
2018-09-15T04:59:36.443Z,102540.60
2018-09-15T05:02:39.722Z,102543.79
2018-09-15T05:05:43.020Z,102549.81
2018-09-15T05:08:46.323Z,102554.27
2018-09-15T05:11:49.511Z,102549.71
2018-09-15T05:14:52.745Z,102553.25
2018-09-15T05:17:56.011Z,102559.95
2018-09-15T05:20:59.197Z,102558.46
2018-09-15T05:24:02.500Z,102557.13
2018-09-15T05:27:07.047Z,102559.99
2018-09-15T05:30:10.362Z,102567.06
2018-09-15T05:33:13.655Z,102567.67
2018-09-15T05:36:16.917Z,102572.31
2018-09-15T05:39:20.234Z,102573.27
2018-09-15T05:42:23.503Z,102575.35
2018-09-15T05:45:26.816Z,102569.46
2018-09-15T05:48:30.049Z,102572.85
2018-09-15T05:51:33.756Z,102586.29
2018-09-15T05:54:38.108Z,102590.35
2018-09-15T05:57:41.352Z,102585.25
2018-09-15T06:00:44.709Z,102587.00
2018-09-15T06:03:49.280Z,102588.68
2018-09-15T06:06:52.623Z,102592.40
2018-09-15T06:09:55.935Z,102597.62
2018-09-15T06:12:59.275Z,102602.75
2018-09-15T06:16:02.648Z,102610.23
2018-09-15T06:19:06.617Z,102607.65
2018-09-15T06:22:09.847Z,102618.14
2018-09-15T06:25:13.099Z,102616.73
2018-09-15T06:28:16.381Z,102619.03
2018-09-15T06:31:19.747Z,102628.97
2018-09-15T06:34:22.979Z,102630.10
2018-09-15T06:37:26.273Z,102632.00
2018-09-15T06:40:29.566Z,102633.13
2018-09-15T06:43:32.847Z,102627.07
2018-09-15T06:46:36.287Z,102625.78
2018-09-15T06:49:39.545Z,102629.06
2018-09-15T06:52:42.877Z,102629.88
2018-09-15T06:55:46.169Z,102631.55
2018-09-15T06:58:49.779Z,102637.82
2018-09-15T07:01:53.086Z,102642.99
2018-09-15T07:04:56.322Z,102639.29
2018-09-15T07:07:59.535Z,102641.13
2018-09-15T07:11:02.822Z,102649.17
2018-09-15T07:14:07.195Z,102647.02
2018-09-15T07:17:10.451Z,102643.61
2018-09-15T07:20:13.822Z,102637.65
2018-09-15T07:23:17.031Z,102638.98
2018-09-15T07:26:20.251Z,102637.53
2018-09-15T07:29:23.571Z,102645.62
2018-09-15T07:32:27.182Z,102645.82
2018-09-15T07:35:30.454Z,102651.44
2018-09-15T07:38:34.003Z,102650.83
2018-09-15T07:41:37.466Z,102651.33
2018-09-15T07:44:40.858Z,102652.98
2018-09-15T07:47:44.174Z,102652.64
2018-09-15T07:50:47.459Z,102655.04
2018-09-15T07:53:50.735Z,102652.94
2018-09-15T07:56:54.036Z,102663.55
2018-09-15T07:59:57.347Z,102662.81
2018-09-15T08:03:00.700Z,102663.80
2018-09-15T08:06:04.173Z,102663.38
2018-09-15T08:09:08.656Z,102667.32
2018-09-15T08:12:11.902Z,102669.86
2018-09-15T08:15:16.207Z,102670.08
2018-09-15T08:18:19.508Z,102672.72
2018-09-15T08:21:22.885Z,102675.73
2018-09-15T08:24:26.207Z,102675.49
2018-09-15T08:27:29.455Z,102668.70
2018-09-15T08:30:32.803Z,102669.31
2018-09-15T08:33:36.204Z,102671.59
2018-09-15T08:36:39.456Z,102672.54
2018-09-15T08:39:42.679Z,102678.18
2018-09-15T08:42:46.071Z,102677.24
2018-09-15T08:45:50.924Z,102680.56
2018-09-15T08:48:54.167Z,102678.49
2018-09-15T08:51:57.525Z,102686.33
2018-09-15T08:55:00.779Z,102690.63
2018-09-15T08:58:04.065Z,102690.19
2018-09-15T09:01:08.423Z,102688.55
2018-09-15T09:04:11.939Z,102685.02
2018-09-15T09:07:15.183Z,102685.89
2018-09-15T09:10:18.603Z,102684.86
2018-09-15T09:13:21.875Z,102690.26
2018-09-15T09:16:25.107Z,102691.26
2018-09-15T09:19:28.633Z,102694.37
2018-09-15T09:22:32.958Z,102694.65
2018-09-15T09:25:36.615Z,102690.89
2018-09-15T09:28:39.961Z,102692.47
2018-09-15T09:31:43.214Z,102690.31
2018-09-15T09:34:46.528Z,102690.12
2018-09-15T09:37:49.724Z,102684.22
2018-09-15T09:40:53.172Z,102682.55
2018-09-15T09:43:56.523Z,102679.24
2018-09-15T09:46:59.871Z,102683.16
2018-09-15T09:50:03.243Z,102684.61
2018-09-15T09:53:07.371Z,102690.64
2018-09-15T09:56:10.759Z,102692.01
2018-09-15T09:59:15.184Z,102690.34
2018-09-15T10:02:23.916Z,102685.66
2018-09-15T10:05:27.280Z,102689.99
2018-09-15T10:08:31.269Z,102684.09
2018-09-15T10:11:34.624Z,102678.73
2018-09-15T10:14:41.121Z,102677.30
2018-09-15T10:17:45.393Z,102675.46
2018-09-15T10:20:48.787Z,102670.38
2018-09-15T10:23:53.039Z,102668.07
2018-09-15T10:26:56.283Z,102661.57
2018-09-15T10:29:59.588Z,102657.91
2018-09-15T10:33:02.865Z,102654.41
2018-09-15T10:36:06.118Z,102661.95
2018-09-15T10:39:10.446Z,102655.69
2018-09-15T10:42:13.844Z,102656.13
2018-09-15T10:45:17.281Z,102655.31
2018-09-15T10:48:21.724Z,102656.29
2018-09-15T10:51:25.142Z,102657.17
2018-09-15T10:54:28.427Z,102655.85
2018-09-15T10:57:31.708Z,102655.34
2018-09-15T11:00:35.034Z,102658.04
2018-09-15T11:03:39.211Z,102647.71
2018-09-15T11:06:42.564Z,102651.31
2018-09-15T11:09:46.355Z,102646.90
2018-09-15T11:12:49.544Z,102649.16
2018-09-15T11:15:53.376Z,102650.39
2018-09-15T11:18:57.067Z,102655.88
2018-09-15T11:22:00.628Z,102657.39
2018-09-15T11:25:03.870Z,102655.86
2018-09-15T11:28:08.195Z,102657.84
2018-09-15T11:31:11.739Z,102650.73
2018-09-15T11:34:15.368Z,102662.35
2018-09-15T11:37:18.642Z,102658.90
2018-09-15T11:40:22.021Z,102650.62
2018-09-15T11:43:25.291Z,102649.31
2018-09-15T11:46:28.564Z,102653.50
2018-09-15T11:49:31.852Z,102643.71
2018-09-15T11:52:36.545Z,102644.65
2018-09-15T11:55:39.788Z,102643.71
2018-09-15T11:58:42.919Z,102646.54
2018-09-15T12:01:46.204Z,102648.51
2018-09-15T12:04:49.639Z,102645.18
2018-09-15T12:07:53.027Z,102642.52
2018-09-15T12:10:56.151Z,102639.13
2018-09-15T12:13:59.434Z,102638.96
2018-09-15T12:17:02.761Z,102644.53
2018-09-15T12:20:06.683Z,102635.02
2018-09-15T12:23:11.040Z,102629.70
2018-09-15T12:26:14.339Z,102636.32
2018-09-15T12:29:17.675Z,102634.32
2018-09-15T12:32:20.948Z,102640.01
2018-09-15T12:35:24.383Z,102633.05
2018-09-15T12:38:27.721Z,102630.69
2018-09-15T12:41:30.871Z,102636.22
2018-09-15T12:47:37.094Z,102645.00
2018-09-15T12:50:40.580Z,102643.06
2018-09-15T12:53:44.115Z,102637.27
2018-09-15T12:56:47.463Z,102635.32
2018-09-15T12:59:51.038Z,102624.83
2018-09-15T13:02:54.784Z,102624.77
2018-09-15T13:05:58.136Z,102621.44
2018-09-15T13:09:01.489Z,102620.95
2018-09-15T13:12:04.659Z,102622.66
2018-09-15T13:15:07.893Z,102626.47
2018-09-15T13:18:11.256Z,102619.00
2018-09-15T13:21:14.483Z,102619.26
2018-09-15T13:24:17.688Z,102613.49
2018-09-15T13:27:20.994Z,102614.07
2018-09-15T13:30:25.259Z,102600.87
2018-09-15T13:33:28.328Z,102596.12
2018-09-15T13:36:31.572Z,102589.87
2018-09-15T13:39:34.881Z,102593.58
2018-09-15T13:42:38.195Z,102595.77
2018-09-15T13:45:41.356Z,102584.63
2018-09-15T13:48:44.660Z,102585.92
2018-09-15T13:51:47.970Z,102580.74
2018-09-15T13:54:51.294Z,102569.44
2018-09-15T13:57:55.508Z,102569.09
2018-09-15T14:00:58.895Z,102570.28
2018-09-15T14:04:02.235Z,102561.37
2018-09-15T14:07:05.862Z,102563.66
2018-09-15T14:10:09.454Z,102564.94
2018-09-15T14:13:12.696Z,102557.87
2018-09-15T14:16:16.129Z,102560.11
2018-09-15T14:19:19.379Z,102565.50
2018-09-15T14:22:23.299Z,102567.17
2018-09-15T14:25:26.650Z,102568.84
2018-09-15T14:28:29.913Z,102567.53
2018-09-15T14:31:33.114Z,102570.26
2018-09-15T14:34:36.677Z,102565.32
2018-09-15T14:37:40.144Z,102562.60
2018-09-15T14:40:43.429Z,102560.34
2018-09-15T14:43:46.947Z,102560.34
2018-09-15T14:46:50.324Z,102560.44
2018-09-15T14:49:54.271Z,102558.48
2018-09-15T14:52:57.554Z,102561.99
2018-09-15T14:56:00.911Z,102554.75
2018-09-15T14:59:04.222Z,102555.38
2018-09-15T15:02:07.741Z,102556.03
2018-09-15T15:05:11.214Z,102554.98
2018-09-15T15:08:14.508Z,102553.87
2018-09-15T15:11:17.795Z,102551.17
2018-09-15T15:14:20.938Z,102548.33
2018-09-15T15:17:25.132Z,102546.88
2018-09-15T15:20:28.297Z,102552.17
2018-09-15T15:23:31.739Z,102546.24
2018-09-15T15:26:35.109Z,102546.56
2018-09-15T15:29:40.142Z,102548.82
2018-09-15T15:32:43.571Z,102551.00
2018-09-15T15:35:47.218Z,102550.64
2018-09-15T15:38:50.528Z,102548.50
2018-09-15T15:41:55.492Z,102551.04
2018-09-15T15:44:58.699Z,102545.85
2018-09-15T15:48:02.136Z,102542.47
2018-09-15T15:51:05.431Z,102545.92
2018-09-15T15:54:08.824Z,102547.09
2018-09-15T15:57:12.131Z,102536.88
2018-09-15T16:00:15.575Z,102543.98
2018-09-15T16:03:18.949Z,102536.89
2018-09-15T16:06:22.526Z,102542.55
2018-09-15T16:09:26.828Z,102541.36
2018-09-15T16:12:30.129Z,102544.52
2018-09-15T16:15:33.642Z,102545.68
2018-09-15T16:18:36.886Z,102549.05
2018-09-15T16:21:40.100Z,102556.27
2018-09-15T16:24:43.411Z,102556.84
2018-09-15T16:27:46.971Z,102548.98
2018-09-15T16:30:50.434Z,102556.47
2018-09-15T16:33:54.353Z,102559.06
2018-09-15T16:36:57.702Z,102557.08
2018-09-15T16:40:01.204Z,102565.01
2018-09-15T16:43:04.452Z,102569.78
2018-09-15T16:46:07.848Z,102568.49
2018-09-15T16:49:11.124Z,102565.61
2018-09-15T16:52:14.470Z,102566.89
2018-09-15T16:55:17.728Z,102564.24
2018-09-15T16:58:20.995Z,102569.09
2018-09-15T17:01:25.060Z,102565.94
2018-09-15T17:04:28.330Z,102567.91
2018-09-15T17:07:31.611Z,102576.26
2018-09-15T17:10:34.915Z,102578.23
2018-09-15T17:13:38.164Z,102583.59
2018-09-15T17:16:41.715Z,102582.15
2018-09-15T17:19:45.115Z,102587.95
2018-09-15T17:22:48.718Z,102588.94
2018-09-15T17:25:52.068Z,102588.45
2018-09-15T17:28:55.319Z,102587.92
2018-09-15T17:31:58.695Z,102592.68
2018-09-15T17:35:02.024Z,102594.29
2018-09-15T17:38:05.324Z,102601.47
2018-09-15T17:41:08.594Z,102602.52
2018-09-15T17:44:13.067Z,102607.92
2018-09-15T17:47:16.316Z,102605.01
2018-09-15T17:50:19.618Z,102607.12
2018-09-15T17:53:22.964Z,102601.91
2018-09-15T17:56:26.362Z,102602.37
2018-09-15T17:59:29.650Z,102612.71
2018-09-15T18:02:33.918Z,102616.94
2018-09-15T18:05:37.288Z,102621.97
2018-09-15T18:08:40.563Z,102621.79
2018-09-15T18:11:44.773Z,102630.04
2018-09-15T18:14:48.092Z,102634.41
2018-09-15T18:17:51.496Z,102634.19
2018-09-15T18:20:54.736Z,102631.97
2018-09-15T18:23:58.246Z,102629.53
2018-09-15T18:27:01.566Z,102626.50
2018-09-15T18:30:05.497Z,102632.39
2018-09-15T18:33:08.778Z,102633.16
2018-09-15T18:36:12.152Z,102636.66
2018-09-15T18:39:16.717Z,102637.83
2018-09-15T18:42:20.021Z,102641.82
2018-09-15T18:45:23.516Z,102642.32
2018-09-15T18:48:27.795Z,102652.22
2018-09-15T18:51:31.017Z,102662.05
2018-09-15T18:54:35.377Z,102665.56
2018-09-15T18:57:38.647Z,102670.27
2018-09-15T19:00:41.936Z,102680.19
2018-09-15T19:03:45.978Z,102674.22
2018-09-15T19:06:49.223Z,102676.71
2018-09-15T19:09:52.490Z,102679.18
2018-09-15T19:12:56.877Z,102679.96
2018-09-15T19:16:00.159Z,102680.15
2018-09-15T19:19:03.471Z,102681.65
2018-09-15T19:22:06.886Z,102682.56
2018-09-15T19:25:10.271Z,102681.93
2018-09-15T19:28:13.524Z,102684.89
2018-09-15T19:31:16.743Z,102683.37
2018-09-15T19:34:20.067Z,102685.86
2018-09-15T19:37:23.327Z,102687.94
2018-09-15T19:40:26.531Z,102692.42
2018-09-15T19:43:29.864Z,102687.61
2018-09-15T19:46:34.139Z,102688.34
2018-09-15T19:49:37.503Z,102693.80
2018-09-15T19:52:40.830Z,102696.30
2018-09-15T19:55:44.180Z,102698.53
2018-09-15T19:58:48.424Z,102692.82
2018-09-15T20:01:51.647Z,102695.25
2018-09-15T20:04:55.040Z,102697.85
2018-09-15T20:07:58.257Z,102696.01
2018-09-15T20:11:01.439Z,102695.35
2018-09-15T20:14:04.751Z,102697.41
2018-09-15T20:17:06.907Z,102704.52
2018-09-15T20:20:09.121Z,102707.14
2018-09-15T20:23:12.393Z,102708.88
2018-09-15T20:26:16.752Z,102705.18
2018-09-15T20:29:20.028Z,102712.18
2018-09-15T20:32:23.286Z,102709.99
2018-09-15T20:35:26.516Z,102707.31
2018-09-15T20:38:29.916Z,102713.38
2018-09-15T20:41:33.247Z,102713.86
2018-09-15T20:44:36.575Z,102711.59
2018-09-15T20:47:40.055Z,102711.85
2018-09-15T20:50:43.309Z,102712.91
2018-09-15T20:53:47.627Z,102711.35
2018-09-15T20:56:50.899Z,102711.05
2018-09-15T20:59:54.234Z,102708.91
2018-09-15T21:02:57.525Z,102707.36
2018-09-15T21:06:01.052Z,102709.71
2018-09-15T21:09:06.385Z,102709.46
2018-09-15T21:12:09.689Z,102711.68
2018-09-15T21:15:12.811Z,102712.10
2018-09-15T21:18:16.724Z,102708.06
2018-09-15T21:21:19.968Z,102707.99
2018-09-15T21:24:23.267Z,102711.28
2018-09-15T21:27:26.543Z,102712.13
2018-09-15T21:30:29.715Z,102712.27
2018-09-15T21:33:33.080Z,102715.46
2018-09-15T21:36:36.371Z,102712.74
2018-09-15T21:39:39.743Z,102715.98
2018-09-15T21:42:43.014Z,102718.31
2018-09-15T21:45:46.915Z,102721.69
2018-09-15T21:48:50.296Z,102715.86
2018-09-15T21:51:53.578Z,102717.36
2018-09-15T21:54:56.855Z,102718.70
2018-09-15T21:58:00.145Z,102722.55
2018-09-15T22:01:04.898Z,102720.02
2018-09-15T22:04:13.526Z,102712.99
2018-09-15T22:07:17.911Z,102721.43
2018-09-15T22:10:21.202Z,102727.49
2018-09-15T22:13:25.564Z,102730.11
2018-09-15T22:16:28.945Z,102741.05
2018-09-15T22:19:33.363Z,102741.44
2018-09-15T22:22:36.781Z,102746.68
2018-09-15T22:25:41.063Z,102754.12
2018-09-15T22:28:44.493Z,102750.12
2018-09-15T22:31:47.896Z,102753.15
2018-09-15T22:34:51.294Z,102753.16
2018-09-15T22:37:55.423Z,102756.90
2018-09-15T22:40:58.827Z,102758.27
2018-09-15T22:44:02.183Z,102750.08
2018-09-15T22:47:05.563Z,102746.00
2018-09-15T22:50:09.268Z,102746.67
2018-09-15T22:53:13.536Z,102748.18
2018-09-15T22:56:16.849Z,102753.76
2018-09-15T22:59:20.149Z,102759.15
2018-09-15T23:02:23.430Z,102762.52
2018-09-15T23:05:27.974Z,102757.56
2018-09-15T23:08:31.249Z,102758.33
2018-09-15T23:11:34.569Z,102749.33
2018-09-15T23:14:37.712Z,102745.27
2018-09-15T23:17:45.259Z,102748.41
2018-09-15T23:20:48.874Z,102740.02
2018-09-15T23:23:52.340Z,102734.55
2018-09-15T23:26:55.857Z,102738.87
2018-09-15T23:29:59.145Z,102741.09
2018-09-15T23:33:02.474Z,102735.45
2018-09-15T23:36:06.080Z,102730.74
2018-09-15T23:39:10.191Z,102736.69
2018-09-15T23:42:13.451Z,102734.99
2018-09-15T23:45:16.748Z,102737.32
2018-09-15T23:48:19.943Z,102738.85
2018-09-15T23:51:23.254Z,102737.07
2018-09-15T23:54:26.549Z,102740.15
2018-09-15T23:57:29.831Z,102734.86
